createdAt,value
2023-05-19T19:36:58.450Z,16.92
2023-05-19T19:39:25.490Z,16.90
2023-05-19T19:41:52.480Z,16.87
2023-05-19T19:44:19.473Z,16.85
2023-05-19T19:46:46.503Z,16.86
2023-05-19T19:49:13.530Z,16.86
2023-05-19T19:51:40.546Z,16.84
2023-05-19T19:54:07.616Z,16.83
2023-05-19T19:56:34.897Z,16.78
2023-05-19T19:59:02.050Z,16.73
2023-05-19T20:01:29.108Z,16.72
2023-05-19T20:03:57.363Z,16.68
2023-05-19T20:06:24.421Z,16.66
2023-05-19T20:08:51.388Z,16.60
2023-05-19T20:11:18.545Z,16.60
2023-05-19T20:13:45.571Z,16.59
2023-05-19T20:16:12.559Z,16.61
2023-05-19T20:18:39.833Z,16.59
2023-05-19T20:21:06.979Z,16.54
2023-05-19T20:23:34.086Z,16.50
2023-05-19T20:26:11.760Z,16.50
2023-05-19T20:28:39.965Z,16.51
2023-05-19T20:31:07.130Z,16.53
2023-05-19T20:33:34.209Z,16.52
2023-05-19T20:36:01.185Z,16.51
2023-05-19T20:38:28.100Z,16.52
2023-05-19T20:40:55.027Z,16.52
2023-05-19T20:43:21.990Z,16.53
2023-05-19T20:45:48.982Z,16.47
2023-05-19T20:48:16.210Z,16.41
2023-05-19T20:50:43.234Z,16.39
2023-05-19T20:53:10.179Z,16.37
2023-05-19T20:55:38.840Z,16.33
2023-05-19T20:58:05.919Z,16.32
2023-05-19T21:00:33.353Z,16.28
2023-05-19T21:03:01.036Z,16.28
2023-05-19T21:05:28.115Z,16.26
2023-05-19T21:07:55.677Z,16.23
2023-05-19T21:10:23.028Z,16.20
2023-05-19T21:12:49.966Z,16.12
2023-05-19T21:15:16.956Z,16.13
2023-05-19T21:17:43.905Z,16.15
2023-05-19T21:20:11.370Z,16.13
2023-05-19T21:22:38.491Z,16.12
2023-05-19T21:25:06.339Z,16.10
2023-05-19T21:27:35.648Z,16.08
2023-05-19T21:30:03.039Z,16.05
2023-05-19T21:32:31.430Z,16.01
2023-05-19T21:34:58.449Z,15.96
2023-05-19T21:37:25.421Z,15.96
2023-05-19T21:39:52.510Z,15.91
2023-05-19T21:42:19.406Z,15.87
2023-05-19T21:44:46.721Z,15.82
2023-05-19T21:47:13.654Z,15.80
2023-05-19T21:49:40.919Z,15.81
2023-05-19T21:52:08.221Z,15.78
2023-05-19T21:54:36.355Z,15.72
2023-05-19T21:57:03.395Z,15.66
2023-05-19T21:59:30.311Z,15.66
2023-05-19T22:01:57.276Z,15.71
2023-05-19T22:04:24.422Z,15.72
2023-05-19T22:06:51.355Z,15.71
2023-05-19T22:09:18.273Z,15.70
2023-05-19T22:11:45.183Z,15.68
2023-05-19T22:14:12.164Z,15.70
2023-05-19T22:16:39.262Z,15.70
2023-05-19T22:19:06.336Z,15.64
2023-05-19T22:21:33.400Z,15.59
2023-05-19T22:24:00.296Z,15.54
2023-05-19T22:26:27.555Z,15.56
2023-05-19T22:28:55.509Z,15.55
2023-05-19T22:31:22.636Z,15.55
2023-05-19T22:33:49.608Z,15.55
2023-05-19T22:36:16.710Z,15.53
2023-05-19T22:38:43.705Z,15.49
2023-05-19T22:41:10.662Z,15.48
2023-05-19T22:43:37.691Z,15.48
2023-05-19T22:46:04.855Z,15.46
2023-05-19T22:48:31.912Z,15.44
2023-05-19T22:50:59.047Z,15.42
2023-05-19T22:53:26.112Z,15.41
2023-05-19T22:55:53.029Z,15.40
2023-05-19T22:58:19.945Z,15.41
2023-05-19T23:00:46.843Z,15.42
2023-05-19T23:03:13.958Z,15.41
2023-05-19T23:05:40.908Z,15.38
2023-05-19T23:08:07.855Z,15.36
2023-05-19T23:10:34.714Z,15.37
2023-05-19T23:13:01.701Z,15.35
2023-05-19T23:15:28.587Z,15.32
2023-05-19T23:17:55.595Z,15.28
2023-05-19T23:20:22.484Z,15.22
2023-05-19T23:22:49.502Z,15.09
2023-05-19T23:25:16.514Z,15.20
2023-05-19T23:27:54.112Z,15.20
2023-05-19T23:30:21.002Z,15.19
2023-05-19T23:32:48.037Z,15.15
2023-05-19T23:35:16.926Z,15.15
2023-05-19T23:37:44.003Z,15.17
2023-05-19T23:40:11.705Z,15.18
2023-05-19T23:42:38.807Z,15.17
2023-05-19T23:45:06.216Z,15.18
2023-05-19T23:47:33.171Z,15.16
2023-05-19T23:50:00.222Z,15.06
2023-05-19T23:52:27.117Z,15.03
2023-05-19T23:54:54.073Z,15.05
2023-05-19T23:57:21.028Z,15.04
2023-05-19T23:59:48.004Z,15.00
